createdAt,value
2023-05-20T00:00:01.943Z,1012.28
2023-05-20T00:00:32.663Z,1012.28
2023-05-20T00:01:03.108Z,1012.27
2023-05-20T00:01:33.996Z,1012.28
2023-05-20T00:02:04.877Z,1012.32
2023-05-20T00:02:35.898Z,1012.33
2023-05-20T00:03:06.447Z,1012.32
2023-05-20T00:03:37.075Z,1012.32
2023-05-20T00:04:07.701Z,1012.29
2023-05-20T00:04:38.329Z,1012.28
2023-05-20T00:05:09.627Z,1012.29
2023-05-20T00:05:40.308Z,1012.28
2023-05-20T00:06:10.695Z,1012.28
2023-05-20T00:06:41.138Z,1012.27
2023-05-20T00:07:12.222Z,1012.27
2023-05-20T00:07:42.728Z,1012.25
2023-05-20T00:08:13.874Z,1012.24
2023-05-20T00:08:44.261Z,1012.24
2023-05-20T00:09:15.146Z,1012.24
2023-05-20T00:09:46.046Z,1012.22
2023-05-20T00:10:16.953Z,1012.20
2023-05-20T00:10:47.863Z,1012.22
2023-05-20T00:11:18.737Z,1012.21
2023-05-20T00:11:49.666Z,1012.21
2023-05-20T00:12:20.618Z,1012.20
2023-05-20T00:12:51.572Z,1012.21
2023-05-20T00:13:22.506Z,1012.19
2023-05-20T00:13:53.469Z,1012.20
2023-05-20T00:14:24.351Z,1012.21
2023-05-20T00:14:56.098Z,1012.19
2023-05-20T00:15:25.955Z,1012.18
2023-05-20T00:15:56.829Z,1012.18
2023-05-20T00:16:27.793Z,1012.20
2023-05-20T00:16:58.740Z,1012.18
2023-05-20T00:17:29.755Z,1012.17
2023-05-20T00:18:00.277Z,1012.17
2023-05-20T00:18:30.735Z,1012.14
2023-05-20T00:19:01.843Z,1012.16
2023-05-20T00:19:32.343Z,1012.15
2023-05-20T00:20:02.790Z,1012.18
2023-05-20T00:20:33.794Z,1012.18
2023-05-20T00:21:04.645Z,1012.19
2023-05-20T00:21:35.527Z,1012.17
2023-05-20T00:22:06.409Z,1012.18
2023-05-20T00:22:37.330Z,1012.16
2023-05-20T00:23:08.228Z,1012.16
2023-05-20T00:23:39.102Z,1012.16
2023-05-20T00:24:10.077Z,1012.17
2023-05-20T00:24:41.073Z,1012.15
2023-05-20T00:25:12.004Z,1012.16
2023-05-20T00:25:42.930Z,1012.14
2023-05-20T00:26:13.924Z,1012.14
2023-05-20T00:26:44.357Z,1012.14
2023-05-20T00:27:15.253Z,1012.12
2023-05-20T00:27:46.141Z,1012.11
2023-05-20T00:28:17.037Z,1012.12
2023-05-20T00:28:47.921Z,1012.10
2023-05-20T00:29:18.817Z,1012.10
2023-05-20T00:29:49.685Z,1012.09
2023-05-20T00:30:20.865Z,1012.09
2023-05-20T00:30:51.459Z,1012.08
2023-05-20T00:31:22.685Z,1012.07
2023-05-20T00:31:53.251Z,1012.07
2023-05-20T00:32:24.124Z,1012.05
2023-05-20T00:32:54.569Z,1012.05
2023-05-20T00:33:25.181Z,1012.04
2023-05-20T00:33:55.555Z,1012.05
2023-05-20T00:34:26.430Z,1012.06
2023-05-20T00:34:57.349Z,1012.06
2023-05-20T00:35:28.231Z,1012.05
2023-05-20T00:35:59.101Z,1012.05
2023-05-20T00:36:30.019Z,1012.06
2023-05-20T00:37:00.975Z,1012.08
2023-05-20T00:37:32.169Z,1012.08
2023-05-20T00:38:02.678Z,1012.07
2023-05-20T00:38:33.810Z,1012.07
2023-05-20T00:39:04.322Z,1012.08
2023-05-20T00:39:35.034Z,1012.08
2023-05-20T00:40:05.437Z,1012.09
2023-05-20T00:40:36.324Z,1012.09
2023-05-20T00:41:07.250Z,1012.08
2023-05-20T00:41:38.150Z,1012.08
2023-05-20T00:42:09.090Z,1012.09
2023-05-20T00:42:39.975Z,1012.09
2023-05-20T00:43:10.901Z,1012.09
2023-05-20T00:43:41.916Z,1012.10
2023-05-20T00:44:12.363Z,1012.10
2023-05-20T00:44:43.293Z,1012.12
2023-05-20T00:45:14.307Z,1012.15
2023-05-20T00:45:44.886Z,1012.14
2023-05-20T00:46:15.403Z,1012.13
2023-05-20T00:46:45.804Z,1012.13
2023-05-20T00:47:16.713Z,1012.13
2023-05-20T00:47:47.690Z,1012.11
2023-05-20T00:48:18.623Z,1012.11
2023-05-20T00:48:49.503Z,1012.12
2023-05-20T00:49:20.386Z,1012.09
2023-05-20T00:49:51.326Z,1012.10
2023-05-20T00:50:22.288Z,1012.09
2023-05-20T00:50:53.245Z,1012.09
2023-05-20T00:51:24.180Z,1012.08
2023-05-20T00:51:55.144Z,1012.04
2023-05-20T00:52:26.021Z,1012.04
2023-05-20T00:52:56.985Z,1012.03
2023-05-20T00:53:27.870Z,1012.02
2023-05-20T00:53:58.770Z,1012.02
2023-05-20T00:54:29.706Z,1012.03
2023-05-20T00:55:00.616Z,1012.00
2023-05-20T00:55:31.569Z,1012.01
2023-05-20T00:56:02.561Z,1012.03
2023-05-20T00:56:33.503Z,1012.04
2023-05-20T00:57:04.445Z,1012.03
2023-05-20T00:57:35.438Z,1012.04
2023-05-20T00:58:06.297Z,1012.04
2023-05-20T00:58:37.187Z,1012.04
2023-05-20T00:59:08.081Z,1012.04
2023-05-20T00:59:39.017Z,1012.02
2023-05-20T01:00:09.905Z,1012.02
2023-05-20T01:00:40.797Z,1012.03
2023-05-20T01:01:11.811Z,1012.02
2023-05-20T01:01:42.381Z,1012.01
2023-05-20T01:02:13.347Z,1012.01
2023-05-20T01:02:43.498Z,1012.01
2023-05-20T01:03:14.403Z,1012.00
2023-05-20T01:03:44.995Z,1012.00
2023-05-20T01:04:15.745Z,1011.97
2023-05-20T01:04:46.246Z,1011.96
2023-05-20T01:05:16.780Z,1011.96
2023-05-20T01:05:47.264Z,1011.93
2023-05-20T01:06:18.157Z,1011.92
2023-05-20T01:06:49.023Z,1011.89
2023-05-20T01:07:19.960Z,1011.90
2023-05-20T01:07:50.864Z,1011.90
2023-05-20T01:08:21.936Z,1011.89
2023-05-20T01:08:52.472Z,1011.88
2023-05-20T01:09:23.572Z,1011.87
2023-05-20T01:09:54.076Z,1011.86
2023-05-20T01:10:25.020Z,1011.86
2023-05-20T01:10:57.981Z,1011.89
2023-05-20T01:11:26.929Z,1011.88
2023-05-20T01:11:57.804Z,1011.89
2023-05-20T01:12:28.690Z,1011.88
2023-05-20T01:12:59.627Z,1011.87
2023-05-20T01:13:30.526Z,1011.87
2023-05-20T01:14:01.419Z,1011.88
2023-05-20T01:14:32.416Z,1011.88
2023-05-20T01:15:02.856Z,1011.88
2023-05-20T01:15:34.224Z,1011.87
2023-05-20T01:16:04.570Z,1011.86
2023-05-20T01:16:35.752Z,1011.87
2023-05-20T01:17:06.628Z,1011.86
2023-05-20T01:17:37.082Z,1011.83
2023-05-20T01:18:08.032Z,1011.85
2023-05-20T01:18:38.961Z,1011.81
2023-05-20T01:19:09.879Z,1011.81
2023-05-20T01:19:40.801Z,1011.80
2023-05-20T01:20:11.673Z,1011.79
2023-05-20T01:20:42.697Z,1011.79
2023-05-20T01:21:13.205Z,1011.79
2023-05-20T01:21:44.142Z,1011.79
2023-05-20T01:22:15.132Z,1011.80
2023-05-20T01:22:45.707Z,1011.81
2023-05-20T01:23:16.261Z,1011.80
2023-05-20T01:23:46.694Z,1011.77
2023-05-20T01:24:17.617Z,1011.78
2023-05-20T01:24:48.593Z,1011.79
2023-05-20T01:25:19.504Z,1011.78
2023-05-20T01:25:50.452Z,1011.78
2023-05-20T01:26:21.394Z,1011.77
2023-05-20T01:26:52.317Z,1011.77
2023-05-20T01:27:23.020Z,1011.77
2023-05-20T01:27:53.533Z,1011.77
2023-05-20T01:28:23.991Z,1011.77
2023-05-20T01:28:55.048Z,1011.77
2023-05-20T01:29:27.187Z,1011.76
2023-05-20T01:29:56.621Z,1011.77
2023-05-20T01:30:27.630Z,1011.77
2023-05-20T01:30:58.049Z,1011.77
2023-05-20T01:31:29.001Z,1011.79
2023-05-20T01:31:59.924Z,1011.80
2023-05-20T01:32:30.892Z,1011.80
2023-05-20T01:33:01.903Z,1011.81
2023-05-20T01:33:32.368Z,1011.80
2023-05-20T01:34:03.315Z,1011.80
2023-05-20T01:34:34.265Z,1011.81
2023-05-20T01:35:05.256Z,1011.81
2023-05-20T01:35:35.928Z,1011.83
2023-05-20T01:36:06.652Z,1011.82
2023-05-20T01:36:37.669Z,1011.82
2023-05-20T01:37:08.527Z,1011.82
2023-05-20T01:37:39.400Z,1011.80
2023-05-20T01:38:10.310Z,1011.83
2023-05-20T01:38:41.226Z,1011.84
2023-05-20T01:39:12.142Z,1011.84
2023-05-20T01:39:43.044Z,1011.84
2023-05-20T01:40:14.186Z,1011.84
2023-05-20T01:40:44.731Z,1011.84
2023-05-20T01:41:15.412Z,1011.84
2023-05-20T01:41:45.923Z,1011.83
2023-05-20T01:42:16.657Z,1011.84
2023-05-20T01:42:47.161Z,1011.83
2023-05-20T01:43:17.906Z,1011.83
2023-05-20T01:43:48.393Z,1011.84
2023-05-20T01:44:19.262Z,1011.83
2023-05-20T01:44:50.153Z,1011.82
2023-05-20T01:45:21.075Z,1011.83
2023-05-20T01:45:51.975Z,1011.83
2023-05-20T01:46:22.875Z,1011.83
2023-05-20T01:46:53.919Z,1011.82
2023-05-20T01:47:24.612Z,1011.81
2023-05-20T01:47:55.180Z,1011.82
2023-05-20T01:48:25.845Z,1011.82
2023-05-20T01:48:56.345Z,1011.80
2023-05-20T01:49:27.498Z,1011.80
2023-05-20T01:49:58.029Z,1011.82
2023-05-20T01:50:28.737Z,1011.82
2023-05-20T01:50:59.123Z,1011.83
2023-05-20T01:51:29.996Z,1011.84
2023-05-20T01:52:00.512Z,1011.86
2023-05-20T01:52:31.472Z,1011.85
2023-05-20T01:53:02.342Z,1011.86
2023-05-20T01:53:33.273Z,1011.86
2023-05-20T01:54:04.279Z,1011.85
2023-05-20T01:54:35.438Z,1011.81
2023-05-20T01:55:05.993Z,1011.84
2023-05-20T01:55:37.178Z,1011.82
2023-05-20T01:56:07.735Z,1011.79
2023-05-20T01:56:38.420Z,1011.78
2023-05-20T01:57:08.995Z,1011.79
2023-05-20T01:57:39.408Z,1011.79
2023-05-20T01:58:10.378Z,1011.79
2023-05-20T01:58:41.269Z,1011.79
2023-05-20T01:59:12.260Z,1011.77
2023-05-20T01:59:42.681Z,1011.79
2023-05-20T02:00:13.597Z,1011.79
2023-05-20T02:00:44.852Z,1011.79
2023-05-20T02:01:15.431Z,1011.77
2023-05-20T02:01:46.262Z,1011.77
2023-05-20T02:02:16.546Z,1011.78
2023-05-20T02:02:47.680Z,1011.76
2023-05-20T02:03:18.355Z,1011.75
2023-05-20T02:03:49.077Z,1011.76
2023-05-20T02:04:19.591Z,1011.74
2023-05-20T02:04:49.979Z,1011.77
2023-05-20T02:05:20.909Z,1011.75
2023-05-20T02:05:51.852Z,1011.76
2023-05-20T02:06:22.817Z,1011.74
2023-05-20T02:06:53.689Z,1011.73
2023-05-20T02:07:24.566Z,1011.73
2023-05-20T02:07:55.511Z,1011.72
2023-05-20T02:08:26.506Z,1011.72
2023-05-20T02:08:57.514Z,1011.71
2023-05-20T02:09:28.054Z,1011.73
2023-05-20T02:09:58.534Z,1011.75
2023-05-20T02:10:29.466Z,1011.75
2023-05-20T02:11:00.338Z,1011.75
2023-05-20T02:11:31.237Z,1011.75
2023-05-20T02:12:02.175Z,1011.74
2023-05-20T02:12:33.109Z,1011.74
2023-05-20T02:13:04.000Z,1011.75
2023-05-20T02:13:34.900Z,1011.77
2023-05-20T02:14:05.870Z,1011.74
2023-05-20T02:14:36.874Z,1011.75
2023-05-20T02:15:07.425Z,1011.74
2023-05-20T02:15:37.873Z,1011.75
2023-05-20T02:16:09.025Z,1011.73
2023-05-20T02:16:39.599Z,1011.73
2023-05-20T02:17:10.075Z,1011.73
2023-05-20T02:17:40.999Z,1011.72
2023-05-20T02:18:12.026Z,1011.70
2023-05-20T02:18:42.419Z,1011.71
2023-05-20T02:19:13.453Z,1011.73
2023-05-20T02:19:44.193Z,1011.72
2023-05-20T02:20:15.082Z,1011.73
2023-05-20T02:20:46.011Z,1011.74
2023-05-20T02:21:17.016Z,1011.74
2023-05-20T02:21:47.947Z,1011.75
2023-05-20T02:22:18.939Z,1011.74
2023-05-20T02:22:49.898Z,1011.75
2023-05-20T02:23:20.761Z,1011.74
2023-05-20T02:23:51.656Z,1011.74
2023-05-20T02:24:22.559Z,1011.73
2023-05-20T02:24:53.445Z,1011.73
2023-05-20T02:25:24.321Z,1011.71
2023-05-20T02:25:55.257Z,1011.71
2023-05-20T02:26:26.197Z,1011.70
2023-05-20T02:26:57.200Z,1011.68
2023-05-20T02:27:28.145Z,1011.68
2023-05-20T02:27:59.078Z,1011.65
2023-05-20T02:28:29.606Z,1011.65
2023-05-20T02:29:00.554Z,1011.64
2023-05-20T02:29:31.432Z,1011.62
2023-05-20T02:30:02.328Z,1011.61
2023-05-20T02:30:33.237Z,1011.60
2023-05-20T02:31:04.157Z,1011.58
2023-05-20T02:31:35.026Z,1011.58
2023-05-20T02:32:05.895Z,1011.58
2023-05-20T02:32:36.925Z,1011.57
2023-05-20T02:33:07.672Z,1011.57
2023-05-20T02:33:38.260Z,1011.55
2023-05-20T02:34:09.085Z,1011.56
2023-05-20T02:34:39.687Z,1011.57
2023-05-20T02:35:10.341Z,1011.58
2023-05-20T02:35:40.843Z,1011.60
2023-05-20T02:36:11.726Z,1011.60
2023-05-20T02:36:42.635Z,1011.61
2023-05-20T02:37:13.513Z,1011.62
2023-05-20T02:37:44.400Z,1011.61
2023-05-20T02:38:15.276Z,1011.61
2023-05-20T02:38:46.169Z,1011.63
2023-05-20T02:39:17.081Z,1011.64
2023-05-20T02:39:48.033Z,1011.64
2023-05-20T02:40:18.970Z,1011.63
2023-05-20T02:40:49.992Z,1011.63
2023-05-20T02:41:20.484Z,1011.63
2023-05-20T02:41:51.505Z,1011.63
2023-05-20T02:42:21.872Z,1011.64
2023-05-20T02:42:52.747Z,1011.63
2023-05-20T02:43:23.678Z,1011.62
2023-05-20T02:43:54.588Z,1011.60
2023-05-20T02:44:25.465Z,1011.58
2023-05-20T02:44:56.347Z,1011.56
2023-05-20T02:45:27.208Z,1011.55
2023-05-20T02:45:58.195Z,1011.54
2023-05-20T02:46:29.297Z,1011.52
2023-05-20T02:46:59.786Z,1011.52
2023-05-20T02:47:30.809Z,1011.52
2023-05-20T02:48:01.681Z,1011.52
2023-05-20T02:48:32.097Z,1011.51
2023-05-20T02:49:03.045Z,1011.52
2023-05-20T02:49:33.956Z,1011.54
2023-05-20T02:50:04.919Z,1011.54
2023-05-20T02:50:35.788Z,1011.55
2023-05-20T02:51:06.699Z,1011.55
2023-05-20T02:51:37.737Z,1011.58
2023-05-20T02:52:08.115Z,1011.58
2023-05-20T02:52:39.265Z,1011.60
2023-05-20T02:53:09.770Z,1011.62
2023-05-20T02:53:40.919Z,1011.61
2023-05-20T02:54:11.447Z,1011.62
2023-05-20T02:54:42.162Z,1011.65
2023-05-20T02:55:12.545Z,1011.64
2023-05-20T02:55:43.430Z,1011.63
2023-05-20T02:56:14.344Z,1011.65
2023-05-20T02:56:45.232Z,1011.66
2023-05-20T02:57:16.118Z,1011.66
2023-05-20T02:57:46.986Z,1011.65
2023-05-20T02:58:17.936Z,1011.67
2023-05-20T02:58:48.858Z,1011.66
2023-05-20T02:59:19.813Z,1011.68
2023-05-20T02:59:50.741Z,1011.68
2023-05-20T03:00:21.696Z,1011.68
2023-05-20T03:00:52.560Z,1011.66
2023-05-20T03:01:23.528Z,1011.65
2023-05-20T03:01:54.028Z,1011.64
2023-05-20T03:02:25.034Z,1011.62
2023-05-20T03:02:55.487Z,1011.62
2023-05-20T03:03:26.004Z,1011.60
2023-05-20T03:03:56.941Z,1011.60
2023-05-20T03:04:28.108Z,1011.58
2023-05-20T03:04:58.655Z,1011.56
2023-05-20T03:05:29.672Z,1011.57
2023-05-20T03:06:00.192Z,1011.58
2023-05-20T03:06:31.138Z,1011.58
2023-05-20T03:07:02.082Z,1011.57
2023-05-20T03:07:32.766Z,1011.56
2023-05-20T03:08:03.650Z,1011.57
2023-05-20T03:08:34.596Z,1011.60
2023-05-20T03:09:05.554Z,1011.60
2023-05-20T03:09:36.472Z,1011.63
2023-05-20T03:10:07.340Z,1011.63
2023-05-20T03:10:38.303Z,1011.63
2023-05-20T03:11:09.225Z,1011.65
2023-05-20T03:11:40.189Z,1011.68
2023-05-20T03:12:11.117Z,1011.69
2023-05-20T03:12:42.056Z,1011.69
2023-05-20T03:13:13.032Z,1011.68
2023-05-20T03:13:43.929Z,1011.68
2023-05-20T03:14:14.807Z,1011.69
2023-05-20T03:14:45.682Z,1011.69
2023-05-20T03:15:16.553Z,1011.68
2023-05-20T03:15:47.457Z,1011.70
2023-05-20T03:16:18.743Z,1011.69
2023-05-20T03:16:49.313Z,1011.70
2023-05-20T03:17:19.856Z,1011.71
2023-05-20T03:17:50.334Z,1011.71
2023-05-20T03:18:21.272Z,1011.73
2023-05-20T03:18:52.240Z,1011.72
2023-05-20T03:19:23.360Z,1011.72
2023-05-20T03:19:53.779Z,1011.74
2023-05-20T03:20:24.676Z,1011.75
2023-05-20T03:20:55.505Z,1011.76
2023-05-20T03:21:26.355Z,1011.76
2023-05-20T03:21:57.305Z,1011.76
2023-05-20T03:22:28.198Z,1011.76
2023-05-20T03:22:59.216Z,1011.77
2023-05-20T03:23:29.881Z,1011.76
2023-05-20T03:24:00.374Z,1011.77
2023-05-20T03:24:31.553Z,1011.76
2023-05-20T03:25:01.989Z,1011.75
2023-05-20T03:25:33.435Z,1011.74
2023-05-20T03:26:03.655Z,1011.75
2023-05-20T03:26:34.527Z,1011.76
2023-05-20T03:27:05.414Z,1011.74
2023-05-20T03:27:36.316Z,1011.76
2023-05-20T03:28:07.193Z,1011.74
2023-05-20T03:28:38.090Z,1011.74
2023-05-20T03:29:08.970Z,1011.76
2023-05-20T03:29:40.136Z,1011.75
2023-05-20T03:30:10.574Z,1011.74
2023-05-20T03:30:41.775Z,1011.74
2023-05-20T03:31:12.324Z,1011.74
2023-05-20T03:31:42.881Z,1011.74
2023-05-20T03:32:13.354Z,1011.74
2023-05-20T03:32:44.276Z,1011.75
2023-05-20T03:33:15.256Z,1011.73
2023-05-20T03:33:45.764Z,1011.75
2023-05-20T03:34:16.654Z,1011.75
2023-05-20T03:34:47.556Z,1011.75
2023-05-20T03:35:18.450Z,1011.74
2023-05-20T03:35:49.462Z,1011.73
2023-05-20T03:36:19.902Z,1011.72
2023-05-20T03:36:50.839Z,1011.71
2023-05-20T03:37:21.814Z,1011.70
2023-05-20T03:37:52.757Z,1011.68
2023-05-20T03:38:23.737Z,1011.69
2023-05-20T03:38:54.610Z,1011.69
2023-05-20T03:39:25.495Z,1011.68
2023-05-20T03:39:56.451Z,1011.69
2023-05-20T03:40:27.305Z,1011.70
2023-05-20T03:40:58.230Z,1011.72
2023-05-20T03:41:29.097Z,1011.71
2023-05-20T03:42:00.141Z,1011.69
2023-05-20T03:42:30.932Z,1011.69
2023-05-20T03:43:01.849Z,1011.69
2023-05-20T03:43:32.800Z,1011.69
2023-05-20T03:44:03.677Z,1011.69
2023-05-20T03:44:34.632Z,1011.69
2023-05-20T03:45:05.469Z,1011.71
2023-05-20T03:45:36.747Z,1011.71
2023-05-20T03:46:07.071Z,1011.71
2023-05-20T03:46:37.936Z,1011.71
2023-05-20T03:47:08.760Z,1011.71
2023-05-20T03:47:39.669Z,1011.71
2023-05-20T03:48:10.617Z,1011.71
2023-05-20T03:48:41.494Z,1011.70
2023-05-20T03:49:12.444Z,1011.69
2023-05-20T03:49:43.417Z,1011.68
2023-05-20T03:50:14.298Z,1011.69
2023-05-20T03:50:45.141Z,1011.69
2023-05-20T03:51:15.997Z,1011.70
2023-05-20T03:51:46.871Z,1011.71
2023-05-20T03:52:17.707Z,1011.69
2023-05-20T03:52:48.538Z,1011.70
2023-05-20T03:53:19.344Z,1011.71
2023-05-20T03:53:50.282Z,1011.70
2023-05-20T03:54:21.233Z,1011.68
2023-05-20T03:54:52.197Z,1011.70
2023-05-20T03:55:23.080Z,1011.71
2023-05-20T03:55:54.001Z,1011.69
2023-05-20T03:56:24.901Z,1011.70
2023-05-20T03:56:55.738Z,1011.68
2023-05-20T03:57:26.575Z,1011.67
2023-05-20T03:57:57.422Z,1011.69
2023-05-20T03:58:28.256Z,1011.68
2023-05-20T03:58:59.107Z,1011.68
2023-05-20T03:59:29.938Z,1011.66
2023-05-20T04:00:00.845Z,1011.66
2023-05-20T04:00:31.782Z,1011.68
2023-05-20T04:01:02.718Z,1011.67
2023-05-20T04:01:33.691Z,1011.65
2023-05-20T04:02:04.638Z,1011.65
2023-05-20T04:02:35.674Z,1011.65
2023-05-20T04:03:06.563Z,1011.66
2023-05-20T04:03:37.219Z,1011.63
2023-05-20T04:04:07.706Z,1011.63
2023-05-20T04:04:38.629Z,1011.62
2023-05-20T04:05:09.469Z,1011.62
2023-05-20T04:05:40.293Z,1011.62
2023-05-20T04:06:11.226Z,1011.62
2023-05-20T04:06:42.144Z,1011.64
2023-05-20T04:07:13.045Z,1011.65
2023-05-20T04:07:43.945Z,1011.64
2023-05-20T04:08:14.861Z,1011.64
2023-05-20T04:08:45.761Z,1011.63
2023-05-20T04:09:16.597Z,1011.64
2023-05-20T04:09:47.467Z,1011.66
2023-05-20T04:10:18.312Z,1011.65
2023-05-20T04:10:49.147Z,1011.64
2023-05-20T04:11:20.004Z,1011.64
2023-05-20T04:11:50.835Z,1011.63
2023-05-20T04:12:21.797Z,1011.62
2023-05-20T04:12:52.738Z,1011.64
2023-05-20T04:13:23.635Z,1011.62
2023-05-20T04:13:54.600Z,1011.62
2023-05-20T04:14:25.488Z,1011.62
2023-05-20T04:14:56.311Z,1011.60
2023-05-20T04:15:27.168Z,1011.59
2023-05-20T04:15:58.044Z,1011.58
2023-05-20T04:16:28.876Z,1011.56
2023-05-20T04:16:59.783Z,1011.56
2023-05-20T04:17:30.693Z,1011.55
2023-05-20T04:18:01.666Z,1011.55
2023-05-20T04:18:32.564Z,1011.56
2023-05-20T04:19:03.473Z,1011.56
2023-05-20T04:19:34.368Z,1011.56
2023-05-20T04:20:05.333Z,1011.57
2023-05-20T04:20:36.228Z,1011.58
2023-05-20T04:21:07.078Z,1011.57
2023-05-20T04:21:37.909Z,1011.58
2023-05-20T04:22:08.750Z,1011.57
2023-05-20T04:22:39.618Z,1011.57
2023-05-20T04:23:10.474Z,1011.59
2023-05-20T04:23:41.288Z,1011.58
2023-05-20T04:24:12.166Z,1011.58
2023-05-20T04:24:43.066Z,1011.57
2023-05-20T04:25:14.019Z,1011.56
2023-05-20T04:25:44.926Z,1011.57
2023-05-20T04:26:15.434Z,1011.57
2023-05-20T04:26:46.313Z,1011.57
2023-05-20T04:27:17.139Z,1011.58
2023-05-20T04:27:47.966Z,1011.56
2023-05-20T04:28:18.805Z,1011.56
2023-05-20T04:28:49.782Z,1011.56
2023-05-20T04:29:20.628Z,1011.56
2023-05-20T04:29:51.481Z,1011.56
2023-05-20T04:30:22.438Z,1011.55
2023-05-20T04:30:53.334Z,1011.56
2023-05-20T04:31:24.271Z,1011.55
2023-05-20T04:31:54.799Z,1011.57
2023-05-20T04:32:25.321Z,1011.57
2023-05-20T04:32:55.821Z,1011.58
2023-05-20T04:33:26.784Z,1011.58
2023-05-20T04:33:57.611Z,1011.58
2023-05-20T04:34:28.468Z,1011.59
2023-05-20T04:34:59.310Z,1011.58
2023-05-20T04:35:30.169Z,1011.60
2023-05-20T04:36:01.034Z,1011.59
2023-05-20T04:36:31.899Z,1011.58
2023-05-20T04:37:03.060Z,1011.59
2023-05-20T04:37:33.513Z,1011.59
2023-05-20T04:38:04.675Z,1011.58
2023-05-20T04:38:35.093Z,1011.58
2023-05-20T04:39:06.155Z,1011.57
2023-05-20T04:39:36.601Z,1011.59
2023-05-20T04:40:07.518Z,1011.58
2023-05-20T04:40:38.407Z,1011.58
2023-05-20T04:41:09.270Z,1011.57
2023-05-20T04:41:40.151Z,1011.58
2023-05-20T04:42:11.035Z,1011.58
2023-05-20T04:42:41.861Z,1011.58
2023-05-20T04:43:12.845Z,1011.58
2023-05-20T04:43:43.716Z,1011.58
2023-05-20T04:44:14.670Z,1011.61
2023-05-20T04:44:45.648Z,1011.62
2023-05-20T04:45:16.508Z,1011.60
2023-05-20T04:45:47.501Z,1011.59
2023-05-20T04:46:17.892Z,1011.59
2023-05-20T04:46:48.771Z,1011.56
2023-05-20T04:47:19.631Z,1011.55
2023-05-20T04:47:50.520Z,1011.55
2023-05-20T04:48:21.379Z,1011.57
2023-05-20T04:48:52.241Z,1011.55
2023-05-20T04:49:23.120Z,1011.54
2023-05-20T04:49:54.057Z,1011.55
2023-05-20T04:50:24.931Z,1011.55
2023-05-20T04:50:55.870Z,1011.56
2023-05-20T04:51:26.756Z,1011.57
2023-05-20T04:51:57.708Z,1011.57
2023-05-20T04:52:28.561Z,1011.57
2023-05-20T04:52:59.411Z,1011.58
2023-05-20T04:53:30.240Z,1011.57
2023-05-20T04:54:01.080Z,1011.56
2023-05-20T04:54:32.044Z,1011.54
2023-05-20T04:55:02.869Z,1011.54
2023-05-20T04:55:33.936Z,1011.52
2023-05-20T04:56:04.628Z,1011.54
2023-05-20T04:56:35.508Z,1011.51
2023-05-20T04:57:06.594Z,1011.51
2023-05-20T04:57:36.966Z,1011.53
2023-05-20T04:58:07.921Z,1011.53
2023-05-20T04:58:38.760Z,1011.51
2023-05-20T04:59:09.615Z,1011.50
2023-05-20T04:59:40.471Z,1011.49
2023-05-20T05:00:11.382Z,1011.50
2023-05-20T05:00:42.228Z,1011.50
2023-05-20T05:01:13.065Z,1011.47
2023-05-20T05:01:44.100Z,1011.48
2023-05-20T05:02:14.586Z,1011.48
2023-05-20T05:02:45.510Z,1011.49
2023-05-20T05:03:16.489Z,1011.47
2023-05-20T05:03:47.439Z,1011.46
2023-05-20T05:04:18.436Z,1011.46
2023-05-20T05:04:48.791Z,1011.45
2023-05-20T05:05:19.650Z,1011.46
2023-05-20T05:05:50.485Z,1011.45
2023-05-20T05:06:21.362Z,1011.46
2023-05-20T05:06:52.198Z,1011.47
2023-05-20T05:07:23.034Z,1011.46
2023-05-20T05:07:54.085Z,1011.48
2023-05-20T05:08:24.544Z,1011.50
2023-05-20T05:08:55.507Z,1011.49
2023-05-20T05:09:26.387Z,1011.52
2023-05-20T05:09:57.305Z,1011.53
2023-05-20T05:10:28.269Z,1011.51
2023-05-20T05:10:59.126Z,1011.51
2023-05-20T05:11:29.988Z,1011.53
2023-05-20T05:12:00.811Z,1011.53
2023-05-20T05:12:31.792Z,1011.57
2023-05-20T05:13:02.659Z,1011.57
2023-05-20T05:13:33.479Z,1011.56
2023-05-20T05:14:04.408Z,1011.58
2023-05-20T05:14:35.302Z,1011.57
2023-05-20T05:15:06.180Z,1011.56
2023-05-20T05:15:37.158Z,1011.59
2023-05-20T05:16:07.972Z,1011.60
2023-05-20T05:16:38.462Z,1011.60
2023-05-20T05:17:09.276Z,1011.58
2023-05-20T05:17:40.150Z,1011.58
2023-05-20T05:18:11.004Z,1011.60
2023-05-20T05:18:41.922Z,1011.63
2023-05-20T05:19:13.028Z,1011.61
2023-05-20T05:19:43.366Z,1011.62
2023-05-20T05:20:14.207Z,1011.62
2023-05-20T05:20:45.077Z,1011.59
2023-05-20T05:21:15.942Z,1011.60
2023-05-20T05:21:46.938Z,1011.60
2023-05-20T05:22:17.828Z,1011.58
2023-05-20T05:22:48.796Z,1011.58
2023-05-20T05:23:19.630Z,1011.58
2023-05-20T05:23:50.481Z,1011.55
2023-05-20T05:24:21.380Z,1011.57
2023-05-20T05:24:52.415Z,1011.57
2023-05-20T05:26:03.886Z,1011.58
2023-05-20T05:26:34.734Z,1011.58
2023-05-20T05:27:05.549Z,1011.60
2023-05-20T05:27:36.371Z,1011.61
2023-05-20T05:28:07.184Z,1011.61
2023-05-20T05:28:38.202Z,1011.59
2023-05-20T05:29:10.343Z,1011.60
2023-05-20T05:29:39.558Z,1011.59
2023-05-20T05:30:09.927Z,1011.58
2023-05-20T05:30:41.093Z,1011.56
2023-05-20T05:31:11.546Z,1011.54
2023-05-20T05:31:42.620Z,1011.54
2023-05-20T05:32:13.167Z,1011.53
2023-05-20T05:32:43.699Z,1011.50
2023-05-20T05:33:14.115Z,1011.49
2023-05-20T05:33:44.958Z,1011.50
2023-05-20T05:34:15.813Z,1011.48
2023-05-20T05:34:46.678Z,1011.47
2023-05-20T05:35:17.544Z,1011.44
2023-05-20T05:35:48.815Z,1011.45
2023-05-20T05:36:19.246Z,1011.44
2023-05-20T05:36:50.391Z,1011.43
2023-05-20T05:37:20.899Z,1011.41
2023-05-20T05:37:51.986Z,1011.42
2023-05-20T05:38:22.469Z,1011.39
2023-05-20T05:38:53.411Z,1011.38
2023-05-20T05:39:23.734Z,1011.38
2023-05-20T05:39:54.592Z,1011.38
2023-05-20T05:40:25.530Z,1011.37
2023-05-20T05:40:56.360Z,1011.39
2023-05-20T05:41:27.185Z,1011.41
2023-05-20T05:41:58.067Z,1011.41
2023-05-20T05:42:29.019Z,1011.41
2023-05-20T05:43:00.227Z,1011.42
2023-05-20T05:43:30.716Z,1011.42
2023-05-20T05:44:01.816Z,1011.41
2023-05-20T05:44:32.281Z,1011.40
2023-05-20T05:45:03.415Z,1011.41
2023-05-20T05:45:34.031Z,1011.40
2023-05-20T05:46:04.543Z,1011.41
2023-05-20T05:46:35.415Z,1011.41
2023-05-20T05:47:06.287Z,1011.39
2023-05-20T05:47:37.237Z,1011.41
2023-05-20T05:48:08.180Z,1011.41
2023-05-20T05:48:38.619Z,1011.42
2023-05-20T05:49:09.594Z,1011.40
2023-05-20T05:49:40.773Z,1011.40
2023-05-20T05:50:13.187Z,1011.40
2023-05-20T05:50:42.121Z,1011.39
2023-05-20T05:51:13.004Z,1011.38
2023-05-20T05:51:43.853Z,1011.40
2023-05-20T05:52:14.686Z,1011.39
2023-05-20T05:52:45.558Z,1011.38
2023-05-20T05:53:16.378Z,1011.38
2023-05-20T05:53:47.243Z,1011.38
2023-05-20T05:54:18.114Z,1011.38
2023-05-20T05:54:48.926Z,1011.39
2023-05-20T05:55:19.789Z,1011.37
2023-05-20T05:55:50.749Z,1011.37
2023-05-20T05:56:21.620Z,1011.38
2023-05-20T05:56:52.556Z,1011.38
2023-05-20T05:57:23.538Z,1011.39
2023-05-20T05:57:54.017Z,1011.41
2023-05-20T05:58:24.836Z,1011.39
2023-05-20T05:58:55.663Z,1011.39
2023-05-20T05:59:26.492Z,1011.40
2023-05-20T05:59:57.315Z,1011.41
2023-05-20T06:00:28.187Z,1011.42
2023-05-20T06:00:59.066Z,1011.42
2023-05-20T06:01:29.926Z,1011.42
2023-05-20T06:02:00.943Z,1011.42
2023-05-20T06:02:31.451Z,1011.44
2023-05-20T06:03:02.008Z,1011.43
2023-05-20T06:03:32.549Z,1011.45
2023-05-20T06:04:03.201Z,1011.42
2023-05-20T06:04:33.574Z,1011.41
2023-05-20T06:05:04.565Z,1011.41
2023-05-20T06:05:35.211Z,1011.42
2023-05-20T06:06:05.709Z,1011.44
2023-05-20T06:06:36.598Z,1011.44
2023-05-20T06:07:07.453Z,1011.44
2023-05-20T06:07:38.307Z,1011.44
2023-05-20T06:08:09.121Z,1011.44
2023-05-20T06:08:39.934Z,1011.44
2023-05-20T06:09:10.902Z,1011.45
2023-05-20T06:09:41.777Z,1011.44
2023-05-20T06:10:12.649Z,1011.43
2023-05-20T06:10:43.565Z,1011.41
2023-05-20T06:11:14.517Z,1011.42
2023-05-20T06:11:45.358Z,1011.41
2023-05-20T06:12:16.187Z,1011.40
2023-05-20T06:12:47.065Z,1011.40
2023-05-20T06:13:17.916Z,1011.40